Comfort, North Carolina
Current Conditions -  °F | °C
As of 12:15 PM on Friday 28 Nov 2014 (Local Time) from KOAJ Reporting Station
Clear Clear  
Wind Chill:   Ceiling: Unl
Heat Index:   Visibility: 10mi
Dew Point: -6°   Wind: 9mph
Humidity: 39%   Direction: 320°NW
Pressure: 30.32"   Gusts: NA
Location:  35.01°N, 77.49°W
Report Text: KOAJ 281715Z AUTO 32008KT 10SM CLR 07/M06 A3032 RMK AO1
Loading
Personal Weather Stations






























Interactive Weather Map New forecast layout! Learn more

10-Day Weather Forecast

Advertisements
Track Severe Weather on mobile